Portada
METAR-TAF:

METAR-TAF

Aeroports :

Eastern Slopes Regional Airport

Fryeburg, Maine, Estats Units d'Amèrica

latitud: 43-59-21N, longitud: 070-57-01W, altitud: 137 m

Observació

L'informe es va fer fa 53 minuts, a les 17:54 UTC
Vent 7 kt del Sud-Est, variant entre Est i Sud/Sud-Est
Temperatura 29°C
Humitat 45%
Pressió 1021 hPa
Visibilitat: 16.1 km
Escasses núvols a una alçada de 5000 ft

METAR: KIZG 261754Z AUTO 13007KT 100V160 10SM FEW050 29/16 A3014 RMK AO2 SLP205 T02940156 10294 20178 58017

Hora: 14:47 (18:47 UTC)


TAF: manca

Observacions i pronòstics meteorològics de més de 4000 aeroports (METAR i TAF).

Les estacions disponibles són els punts grocs i vermells al mapa.

Posi el ratolí al punt desitjat per veure el nom de l'estació.

Feu clic per veure les observacions i els pronòstics meteorològics.

Per canviar el mapa: feu clic els botons verds amb una creu de color negre per apropar; al botó verd amb un guió per allunyar la imatge; o en les fletxes verdes per a mapes adjacents.


METAR-TAF: